Upstream stations:
Downstream station:
SHEF ID: FSPO2 Beaver R at Hwy 183 nr Ft Supply
STATION TYPE:
PRECIP STAGE RIV-FLOW VOLTAGE BAT-LOAD
in ft cfs volt volt
Ccp-Rev Ccp-Rev Ccp-Rev Ccp-Rev Ccp-Rev
(US/Central)
03/14 00:00 0.00 3.95 7 12.73 12.57
03/14 01:00 0.00 3.88 6 12.65 12.57
03/14 02:00 0.00 3.85 5 12.65 12.57
03/14 03:00 0.00 3.83 5 12.65 12.57
03/14 04:00 0.00 3.73 3 12.65 12.57
03/14 05:00 0.00 3.65 2 12.65 12.49
03/14 06:00 0.00 3.55 1 12.65 12.49
03/14 07:00 0.00 3.47 0 12.65 12.49
03/14 08:00 0.00 3.44 0 12.65 12.41
03/14 09:00 0.00 4.06 8 12.81 12.65
03/14 10:00 0.00 4.22 11 13.13 12.89
03/14 11:00 0.00 4.10 9 13.21 13.05
03/14 12:00 0.00 4.42 13 14.08 12.97
03/14 13:00 0.00 4.57 16 14.08 12.97
03/14 14:00 0.00 4.41 13 13.60 12.89
03/14 15:00 0.00 4.42 13 13.60 12.81
03/14 16:00 0.00 4.37 13 13.60 12.81
03/14 17:00 0.00 4.25 11 13.68 12.73
03/14 18:00 0.00 4.12 9 13.53 12.73
03/14 19:00 0.00 3.89 6 12.81 12.65
03/14 20:00 0.00 3.62 2 12.73 12.65
03/14 21:00 0.00 3.36 0 12.73 12.65
03/14 22:00 0.00 3.19 0 12.73 12.65
03/14 23:00 ---- ---- ---- ---- ----